sensor_id;sensor_type;location;lat;lon;timestamp;P1;durP1;ratioP1;P2;durP2;ratioP2
61054;SDS011;46939;48.940;8.258;2023-02-01T00:01:13;9.30;;;4.88;;
61054;SDS011;46939;48.940;8.258;2023-02-01T00:03:41;10.10;;;5.03;;
61054;SDS011;46939;48.940;8.258;2023-02-01T00:06:10;11.13;;;4.88;;
61054;SDS011;46939;48.940;8.258;2023-02-01T00:08:38;10.18;;;4.85;;
61054;SDS011;46939;48.940;8.258;2023-02-01T00:11:07;14.43;;;5.10;;
61054;SDS011;46939;48.940;8.258;2023-02-01T00:13:38;10.07;;;4.93;;
61054;SDS011;46939;48.940;8.258;2023-02-01T00:16:11;11.18;;;5.00;;
61054;SDS011;46939;48.940;8.258;2023-02-01T00:18:42;8.40;;;4.57;;
61054;SDS011;46939;48.940;8.258;2023-02-01T00:21:10;11.40;;;5.32;;
61054;SDS011;46939;48.940;8.258;2023-02-01T00:23:39;10.65;;;5.05;;
61054;SDS011;46939;48.940;8.258;2023-02-01T00:26:11;8.13;;;4.75;;
61054;SDS011;46939;48.940;8.258;2023-02-01T00:28:42;8.00;;;4.68;;
61054;SDS011;46939;48.940;8.258;2023-02-01T00:31:13;9.52;;;4.65;;
61054;SDS011;46939;48.940;8.258;2023-02-01T00:33:42;7.10;;;4.13;;
61054;SDS011;46939;48.940;8.258;2023-02-01T00:36:13;9.43;;;4.45;;
61054;SDS011;46939;48.940;8.258;2023-02-01T00:38:42;11.10;;;4.63;;
61054;SDS011;46939;48.940;8.258;2023-02-01T00:41:12;6.78;;;4.18;;
61054;SDS011;46939;48.940;8.258;2023-02-01T00:43:42;7.13;;;4.03;;
61054;SDS011;46939;48.940;8.258;2023-02-01T00:46:15;9.63;;;4.32;;
61054;SDS011;46939;48.940;8.258;2023-02-01T00:48:45;8.63;;;4.33;;
61054;SDS011;46939;48.940;8.258;2023-02-01T00:51:14;8.13;;;3.95;;
61054;SDS011;46939;48.940;8.258;2023-02-01T00:53:44;8.82;;;4.15;;
61054;SDS011;46939;48.940;8.258;2023-02-01T00:56:13;8.35;;;4.22;;
61054;SDS011;46939;48.940;8.258;2023-02-01T00:58:42;9.23;;;4.18;;
61054;SDS011;46939;48.940;8.258;2023-02-01T01:01:14;6.80;;;3.47;;
61054;SDS011;46939;48.940;8.258;2023-02-01T01:03:45;7.63;;;3.23;;
61054;SDS011;46939;48.940;8.258;2023-02-01T01:06:16;7.13;;;3.47;;
61054;SDS011;46939;48.940;8.258;2023-02-01T01:08:47;7.72;;;3.40;;
61054;SDS011;46939;48.940;8.258;2023-02-01T01:11:16;7.50;;;3.55;;
61054;SDS011;46939;48.940;8.258;2023-02-01T01:13:47;7.55;;;3.08;;
61054;SDS011;46939;48.940;8.258;2023-02-01T01:16:19;8.18;;;3.30;;
61054;SDS011;46939;48.940;8.258;2023-02-01T01:18:48;7.20;;;3.72;;
61054;SDS011;46939;48.940;8.258;2023-02-01T01:21:17;6.90;;;3.00;;
61054;SDS011;46939;48.940;8.258;2023-02-01T01:23:46;7.97;;;3.85;;
61054;SDS011;46939;48.940;8.258;2023-02-01T01:26:16;8.35;;;3.67;;
61054;SDS011;46939;48.940;8.258;2023-02-01T01:28:46;7.85;;;3.47;;
61054;SDS011;46939;48.940;8.258;2023-02-01T01:31:15;8.18;;;3.60;;
61054;SDS011;46939;48.940;8.258;2023-02-01T01:33:48;6.30;;;3.50;;
61054;SDS011;46939;48.940;8.258;2023-02-01T01:36:17;6.35;;;3.35;;
61054;SDS011;46939;48.940;8.258;2023-02-01T01:38:46;8.18;;;3.88;;
61054;SDS011;46939;48.940;8.258;2023-02-01T01:41:16;9.65;;;3.42;;
61054;SDS011;46939;48.940;8.258;2023-02-01T01:43:50;6.55;;;3.30;;
61054;SDS011;46939;48.940;8.258;2023-02-01T01:46:26;7.78;;;3.38;;
61054;SDS011;46939;48.940;8.258;2023-02-01T01:48:59;6.55;;;3.28;;
61054;SDS011;46939;48.940;8.258;2023-02-01T01:51:32;7.28;;;3.13;;
61054;SDS011;46939;48.940;8.258;2023-02-01T01:54:05;7.80;;;3.53;;
61054;SDS011;46939;48.940;8.258;2023-02-01T01:56:38;10.45;;;3.55;;
61054;SDS011;46939;48.940;8.258;2023-02-01T01:59:08;5.55;;;3.03;;
61054;SDS011;46939;48.940;8.258;2023-02-01T02:01:40;6.25;;;3.40;;
61054;SDS011;46939;48.940;8.258;2023-02-01T02:04:08;7.60;;;3.30;;
61054;SDS011;46939;48.940;8.258;2023-02-01T02:06:39;5.82;;;3.28;;
61054;SDS011;46939;48.940;8.258;2023-02-01T02:09:13;5.70;;;3.03;;
61054;SDS011;46939;48.940;8.258;2023-02-01T02:11:41;5.45;;;3.15;;
61054;SDS011;46939;48.940;8.258;2023-02-01T02:14:11;7.22;;;3.22;;
61054;SDS011;46939;48.940;8.258;2023-02-01T02:19:49;8.10;;;3.65;;
61054;SDS011;46939;48.940;8.258;2023-02-01T02:22:45;6.45;;;3.15;;
61054;SDS011;46939;48.940;8.258;2023-02-01T02:31:59;5.97;;;2.88;;
61054;SDS011;46939;48.940;8.258;2023-02-01T02:34:50;7.93;;;3.05;;
61054;SDS011;46939;48.940;8.258;2023-02-01T02:37:25;6.50;;;3.17;;
61054;SDS011;46939;48.940;8.258;2023-02-01T02:40:05;5.35;;;2.90;;
61054;SDS011;46939;48.940;8.258;2023-02-01T02:42:42;8.15;;;3.55;;
61054;SDS011;46939;48.940;8.258;2023-02-01T02:45:34;8.05;;;3.35;;
61054;SDS011;46939;48.940;8.258;2023-02-01T02:48:22;5.80;;;2.95;;
61054;SDS011;46939;48.940;8.258;2023-02-01T02:50:58;7.18;;;3.28;;
61054;SDS011;46939;48.940;8.258;2023-02-01T02:53:46;7.22;;;3.13;;
61054;SDS011;46939;48.940;8.258;2023-02-01T02:56:37;5.50;;;2.90;;
61054;SDS011;46939;48.940;8.258;2023-02-01T02:59:20;8.38;;;3.10;;
61054;SDS011;46939;48.940;8.258;2023-02-01T03:02:04;5.22;;;2.58;;
61054;SDS011;46939;48.940;8.258;2023-02-01T03:04:46;6.00;;;2.75;;
61054;SDS011;46939;48.940;8.258;2023-02-01T03:10:16;5.88;;;2.78;;
61054;SDS011;46939;48.940;8.258;2023-02-01T03:12:51;5.30;;;2.92;;
61054;SDS011;46939;48.940;8.258;2023-02-01T03:15:21;6.22;;;2.80;;
61054;SDS011;46939;48.940;8.258;2023-02-01T03:17:54;4.97;;;2.78;;
61054;SDS011;46939;48.940;8.258;2023-02-01T03:20:25;5.32;;;2.90;;
61054;SDS011;46939;48.940;8.258;2023-02-01T03:22:55;6.25;;;3.03;;
61054;SDS011;46939;48.940;8.258;2023-02-01T03:25:30;5.90;;;3.13;;
61054;SDS011;46939;48.940;8.258;2023-02-01T03:28:00;6.43;;;3.22;;
61054;SDS011;46939;48.940;8.258;2023-02-01T03:30:33;7.60;;;3.10;;
61054;SDS011;46939;48.940;8.258;2023-02-01T03:33:04;7.25;;;3.10;;
61054;SDS011;46939;48.940;8.258;2023-02-01T03:35:39;6.68;;;3.20;;
61054;SDS011;46939;48.940;8.258;2023-02-01T03:38:14;6.43;;;3.33;;
61054;SDS011;46939;48.940;8.258;2023-02-01T03:40:51;5.25;;;3.00;;
61054;SDS011;46939;48.940;8.258;2023-02-01T03:43:23;7.13;;;3.00;;
61054;SDS011;46939;48.940;8.258;2023-02-01T03:45:58;6.70;;;3.35;;
61054;SDS011;46939;48.940;8.258;2023-02-01T03:48:30;5.63;;;2.80;;
61054;SDS011;46939;48.940;8.258;2023-02-01T03:51:00;6.35;;;3.10;;
61054;SDS011;46939;48.940;8.258;2023-02-01T03:53:33;6.38;;;2.85;;
61054;SDS011;46939;48.940;8.258;2023-02-01T03:56:07;6.68;;;3.38;;
61054;SDS011;46939;48.940;8.258;2023-02-01T03:58:36;5.93;;;3.03;;
61054;SDS011;46939;48.940;8.258;2023-02-01T04:01:05;4.95;;;2.85;;
61054;SDS011;46939;48.940;8.258;2023-02-01T04:03:33;6.30;;;3.10;;
61054;SDS011;46939;48.940;8.258;2023-02-01T04:06:02;7.57;;;3.03;;
61054;SDS011;46939;48.940;8.258;2023-02-01T04:08:30;5.80;;;3.30;;
61054;SDS011;46939;48.940;8.258;2023-02-01T04:10:58;5.45;;;2.70;;
61054;SDS011;46939;48.940;8.258;2023-02-01T04:13:29;5.90;;;3.38;;
61054;SDS011;46939;48.940;8.258;2023-02-01T04:15:58;7.25;;;3.55;;
61054;SDS011;46939;48.940;8.258;2023-02-01T04:18:26;9.02;;;3.78;;
61054;SDS011;46939;48.940;8.258;2023-02-01T04:20:54;8.43;;;3.75;;
61054;SDS011;46939;48.940;8.258;2023-02-01T04:23:23;6.65;;;3.67;;
61054;SDS011;46939;48.940;8.258;2023-02-01T04:25:51;7.22;;;3.60;;
61054;SDS011;46939;48.940;8.258;2023-02-01T04:28:20;6.15;;;3.50;;
61054;SDS011;46939;48.940;8.258;2023-02-01T04:30:51;5.57;;;3.50;;
61054;SDS011;46939;48.940;8.258;2023-02-01T04:33:20;8.65;;;3.72;;
61054;SDS011;46939;48.940;8.258;2023-02-01T04:35:48;7.07;;;3.40;;
61054;SDS011;46939;48.940;8.258;2023-02-01T04:38:16;6.60;;;3.38;;
61054;SDS011;46939;48.940;8.258;2023-02-01T04:40:46;6.20;;;3.40;;
61054;SDS011;46939;48.940;8.258;2023-02-01T04:43:15;5.80;;;3.33;;
61054;SDS011;46939;48.940;8.258;2023-02-01T04:45:47;8.02;;;3.33;;
61054;SDS011;46939;48.940;8.258;2023-02-01T04:48:19;7.28;;;3.20;;
61054;SDS011;46939;48.940;8.258;2023-02-01T04:50:48;7.22;;;3.50;;
61054;SDS011;46939;48.940;8.258;2023-02-01T04:53:17;6.65;;;3.40;;
61054;SDS011;46939;48.940;8.258;2023-02-01T04:55:47;5.40;;;3.33;;
61054;SDS011;46939;48.940;8.258;2023-02-01T04:58:16;6.35;;;3.40;;
61054;SDS011;46939;48.940;8.258;2023-02-01T05:00:44;7.50;;;3.03;;
61054;SDS011;46939;48.940;8.258;2023-02-01T05:03:13;6.97;;;3.47;;
61054;SDS011;46939;48.940;8.258;2023-02-01T05:05:44;10.65;;;3.40;;
61054;SDS011;46939;48.940;8.258;2023-02-01T05:08:14;6.63;;;3.42;;
61054;SDS011;46939;48.940;8.258;2023-02-01T05:10:44;6.88;;;3.53;;
61054;SDS011;46939;48.940;8.258;2023-02-01T05:13:12;7.38;;;3.50;;
61054;SDS011;46939;48.940;8.258;2023-02-01T05:16:06;7.18;;;3.70;;
61054;SDS011;46939;48.940;8.258;2023-02-01T05:18:34;7.40;;;3.47;;
61054;SDS011;46939;48.940;8.258;2023-02-01T05:21:05;8.52;;;3.50;;
61054;SDS011;46939;48.940;8.258;2023-02-01T05:23:33;7.50;;;3.45;;
61054;SDS011;46939;48.940;8.258;2023-02-01T05:26:22;6.72;;;3.65;;
61054;SDS011;46939;48.940;8.258;2023-02-01T05:28:51;7.18;;;3.47;;
61054;SDS011;46939;48.940;8.258;2023-02-01T05:31:20;9.32;;;3.53;;
61054;SDS011;46939;48.940;8.258;2023-02-01T05:33:48;6.50;;;3.15;;
61054;SDS011;46939;48.940;8.258;2023-02-01T05:36:19;9.77;;;3.50;;
61054;SDS011;46939;48.940;8.258;2023-02-01T05:38:48;5.70;;;3.05;;
61054;SDS011;46939;48.940;8.258;2023-02-01T05:41:16;5.40;;;2.97;;
61054;SDS011;46939;48.940;8.258;2023-02-01T05:43:44;5.40;;;3.15;;
61054;SDS011;46939;48.940;8.258;2023-02-01T05:46:13;6.97;;;3.70;;
61054;SDS011;46939;48.940;8.258;2023-02-01T05:48:41;7.07;;;3.40;;
61054;SDS011;46939;48.940;8.258;2023-02-01T05:51:10;6.80;;;3.53;;
61054;SDS011;46939;48.940;8.258;2023-02-01T05:53:41;5.72;;;2.95;;
61054;SDS011;46939;48.940;8.258;2023-02-01T05:56:10;6.18;;;3.13;;
61054;SDS011;46939;48.940;8.258;2023-02-01T05:58:38;8.77;;;3.00;;
61054;SDS011;46939;48.940;8.258;2023-02-01T06:01:06;6.47;;;3.10;;
61054;SDS011;46939;48.940;8.258;2023-02-01T06:03:35;7.55;;;3.33;;
61054;SDS011;46939;48.940;8.258;2023-02-01T06:06:03;5.05;;;2.88;;
61054;SDS011;46939;48.940;8.258;2023-02-01T06:08:32;6.78;;;3.38;;
61054;SDS011;46939;48.940;8.258;2023-02-01T06:11:04;6.15;;;3.22;;
61054;SDS011;46939;48.940;8.258;2023-02-01T06:13:32;5.72;;;2.88;;
61054;SDS011;46939;48.940;8.258;2023-02-01T06:16:04;7.82;;;3.30;;
61054;SDS011;46939;48.940;8.258;2023-02-01T06:18:33;7.00;;;3.20;;
61054;SDS011;46939;48.940;8.258;2023-02-01T06:21:03;7.45;;;3.60;;
61054;SDS011;46939;48.940;8.258;2023-02-01T06:23:31;7.05;;;3.47;;
61054;SDS011;46939;48.940;8.258;2023-02-01T06:26:00;8.07;;;3.40;;
61054;SDS011;46939;48.940;8.258;2023-02-01T06:28:32;7.15;;;3.10;;
61054;SDS011;46939;48.940;8.258;2023-02-01T06:31:02;6.72;;;2.80;;
61054;SDS011;46939;48.940;8.258;2023-02-01T06:33:31;6.00;;;3.30;;
61054;SDS011;46939;48.940;8.258;2023-02-01T06:36:00;6.68;;;3.10;;
61054;SDS011;46939;48.940;8.258;2023-02-01T06:38:30;7.00;;;3.17;;
61054;SDS011;46939;48.940;8.258;2023-02-01T06:40:59;9.10;;;3.05;;
61054;SDS011;46939;48.940;8.258;2023-02-01T06:43:31;5.57;;;2.95;;
61054;SDS011;46939;48.940;8.258;2023-02-01T06:46:00;7.22;;;3.20;;
61054;SDS011;46939;48.940;8.258;2023-02-01T06:48:30;5.78;;;2.80;;
61054;SDS011;46939;48.940;8.258;2023-02-01T06:50:59;5.90;;;3.10;;
61054;SDS011;46939;48.940;8.258;2023-02-01T06:53:27;6.82;;;3.10;;
61054;SDS011;46939;48.940;8.258;2023-02-01T06:55:56;5.97;;;3.15;;
61054;SDS011;46939;48.940;8.258;2023-02-01T06:58:27;8.18;;;3.40;;
61054;SDS011;46939;48.940;8.258;2023-02-01T07:01:04;6.80;;;2.90;;
61054;SDS011;46939;48.940;8.258;2023-02-01T07:03:32;6.00;;;3.08;;
61054;SDS011;46939;48.940;8.258;2023-02-01T07:06:01;5.70;;;3.08;;
61054;SDS011;46939;48.940;8.258;2023-02-01T07:08:29;6.07;;;2.80;;
61054;SDS011;46939;48.940;8.258;2023-02-01T07:11:00;6.78;;;3.33;;
61054;SDS011;46939;48.940;8.258;2023-02-01T07:13:32;6.95;;;3.13;;
61054;SDS011;46939;48.940;8.258;2023-02-01T07:16:00;6.45;;;2.97;;
61054;SDS011;46939;48.940;8.258;2023-02-01T07:18:29;9.13;;;3.08;;
61054;SDS011;46939;48.940;8.258;2023-02-01T07:21:02;5.85;;;3.00;;
61054;SDS011;46939;48.940;8.258;2023-02-01T07:23:31;6.40;;;2.95;;
61054;SDS011;46939;48.940;8.258;2023-02-01T07:26:00;7.43;;;3.33;;
61054;SDS011;46939;48.940;8.258;2023-02-01T07:28:34;8.23;;;3.03;;
61054;SDS011;46939;48.940;8.258;2023-02-01T07:31:03;11.07;;;3.67;;
61054;SDS011;46939;48.940;8.258;2023-02-01T07:33:32;7.65;;;3.45;;
61054;SDS011;46939;48.940;8.258;2023-02-01T07:36:01;8.45;;;3.50;;
61054;SDS011;46939;48.940;8.258;2023-02-01T07:38:31;7.22;;;3.25;;
61054;SDS011;46939;48.940;8.258;2023-02-01T07:41:00;6.80;;;3.08;;
61054;SDS011;46939;48.940;8.258;2023-02-01T07:43:35;5.22;;;2.75;;
61054;SDS011;46939;48.940;8.258;2023-02-01T07:46:04;8.82;;;2.92;;
61054;SDS011;46939;48.940;8.258;2023-02-01T07:48:33;6.78;;;3.33;;
61054;SDS011;46939;48.940;8.258;2023-02-01T07:51:02;6.07;;;2.90;;
61054;SDS011;46939;48.940;8.258;2023-02-01T07:53:32;6.93;;;3.35;;
61054;SDS011;46939;48.940;8.258;2023-02-01T07:56:09;7.35;;;3.28;;
61054;SDS011;46939;48.940;8.258;2023-02-01T07:58:42;8.60;;;3.03;;
61054;SDS011;46939;48.940;8.258;2023-02-01T08:01:13;5.57;;;2.90;;
61054;SDS011;46939;48.940;8.258;2023-02-01T08:03:50;7.28;;;2.65;;
61054;SDS011;46939;48.940;8.258;2023-02-01T08:06:19;5.57;;;2.70;;
61054;SDS011;46939;48.940;8.258;2023-02-01T08:08:49;8.93;;;2.90;;
61054;SDS011;46939;48.940;8.258;2023-02-01T08:11:18;6.47;;;2.58;;
61054;SDS011;46939;48.940;8.258;2023-02-01T08:13:49;5.78;;;2.70;;
61054;SDS011;46939;48.940;8.258;2023-02-01T08:16:19;7.03;;;2.97;;
61054;SDS011;46939;48.940;8.258;2023-02-01T08:18:48;9.40;;;2.72;;
61054;SDS011;46939;48.940;8.258;2023-02-01T08:21:17;6.10;;;2.80;;
61054;SDS011;46939;48.940;8.258;2023-02-01T08:23:47;7.70;;;3.13;;
61054;SDS011;46939;48.940;8.258;2023-02-01T08:29:17;6.35;;;2.50;;
61054;SDS011;46939;48.940;8.258;2023-02-01T08:31:45;4.38;;;2.45;;
61054;SDS011;46939;48.940;8.258;2023-02-01T08:34:14;5.43;;;2.70;;
61054;SDS011;46939;48.940;8.258;2023-02-01T08:36:42;8.20;;;3.13;;
61054;SDS011;46939;48.940;8.258;2023-02-01T08:39:11;6.97;;;2.80;;
61054;SDS011;46939;48.940;8.258;2023-02-01T08:41:39;4.93;;;2.42;;
61054;SDS011;46939;48.940;8.258;2023-02-01T08:44:30;6.55;;;2.97;;
61054;SDS011;46939;48.940;8.258;2023-02-01T08:46:59;7.47;;;2.78;;
61054;SDS011;46939;48.940;8.258;2023-02-01T08:49:27;5.28;;;2.65;;
61054;SDS011;46939;48.940;8.258;2023-02-01T08:51:56;6.25;;;2.70;;
61054;SDS011;46939;48.940;8.258;2023-02-01T08:54:24;6.18;;;2.80;;
61054;SDS011;46939;48.940;8.258;2023-02-01T08:56:52;7.72;;;2.58;;
61054;SDS011;46939;48.940;8.258;2023-02-01T08:59:21;5.38;;;2.72;;
61054;SDS011;46939;48.940;8.258;2023-02-01T09:01:52;6.13;;;2.50;;
61054;SDS011;46939;48.940;8.258;2023-02-01T09:04:21;7.00;;;2.25;;
61054;SDS011;46939;48.940;8.258;2023-02-01T09:06:49;6.57;;;2.40;;
61054;SDS011;46939;48.940;8.258;2023-02-01T09:09:20;5.13;;;2.30;;
61054;SDS011;46939;48.940;8.258;2023-02-01T09:11:48;7.80;;;2.05;;
61054;SDS011;46939;48.940;8.258;2023-02-01T09:14:17;6.55;;;2.20;;
61054;SDS011;46939;48.940;8.258;2023-02-01T09:16:48;7.60;;;2.17;;
61054;SDS011;46939;48.940;8.258;2023-02-01T09:19:19;8.50;;;3.30;;
61054;SDS011;46939;48.940;8.258;2023-02-01T09:21:48;7.95;;;2.50;;
61054;SDS011;46939;48.940;8.258;2023-02-01T09:24:16;7.00;;;2.25;;
61054;SDS011;46939;48.940;8.258;2023-02-01T09:26:44;6.95;;;2.75;;
61054;SDS011;46939;48.940;8.258;2023-02-01T09:29:14;6.15;;;2.30;;
61054;SDS011;46939;48.940;8.258;2023-02-01T09:31:42;7.18;;;1.92;;
61054;SDS011;46939;48.940;8.258;2023-02-01T09:34:10;5.68;;;2.03;;
61054;SDS011;46939;48.940;8.258;2023-02-01T09:36:42;8.30;;;2.60;;
61054;SDS011;46939;48.940;8.258;2023-02-01T09:39:10;8.88;;;2.42;;
61054;SDS011;46939;48.940;8.258;2023-02-01T09:41:44;6.30;;;2.03;;
61054;SDS011;46939;48.940;8.258;2023-02-01T09:47:21;8.85;;;2.50;;
61054;SDS011;46939;48.940;8.258;2023-02-01T09:49:54;7.68;;;2.30;;
61054;SDS011;46939;48.940;8.258;2023-02-01T09:52:29;8.02;;;2.15;;
61054;SDS011;46939;48.940;8.258;2023-02-01T09:55:04;10.07;;;2.20;;
61054;SDS011;46939;48.940;8.258;2023-02-01T09:57:41;8.95;;;2.20;;
61054;SDS011;46939;48.940;8.258;2023-02-01T10:00:18;9.65;;;2.50;;
61054;SDS011;46939;48.940;8.258;2023-02-01T10:02:50;6.78;;;2.30;;
61054;SDS011;46939;48.940;8.258;2023-02-01T10:05:22;10.15;;;2.63;;
61054;SDS011;46939;48.940;8.258;2023-02-01T10:08:08;8.85;;;2.55;;
61054;SDS011;46939;48.940;8.258;2023-02-01T10:10:44;7.82;;;2.30;;
61054;SDS011;46939;48.940;8.258;2023-02-01T10:13:24;8.35;;;2.30;;
61054;SDS011;46939;48.940;8.258;2023-02-01T10:16:11;10.27;;;2.20;;
61054;SDS011;46939;48.940;8.258;2023-02-01T10:18:54;9.30;;;3.03;;
61054;SDS011;46939;48.940;8.258;2023-02-01T10:21:33;9.52;;;2.30;;
61054;SDS011;46939;48.940;8.258;2023-02-01T10:24:17;8.25;;;2.08;;
61054;SDS011;46939;48.940;8.258;2023-02-01T10:27:07;8.02;;;2.13;;
61054;SDS011;46939;48.940;8.258;2023-02-01T10:29:41;6.25;;;2.20;;
61054;SDS011;46939;48.940;8.258;2023-02-01T10:32:12;7.53;;;2.63;;
61054;SDS011;46939;48.940;8.258;2023-02-01T10:34:44;7.38;;;2.13;;
61054;SDS011;46939;48.940;8.258;2023-02-01T10:39:55;7.90;;;1.98;;
61054;SDS011;46939;48.940;8.258;2023-02-01T10:42:26;7.15;;;2.25;;
61054;SDS011;46939;48.940;8.258;2023-02-01T10:44:56;7.50;;;2.42;;
61054;SDS011;46939;48.940;8.258;2023-02-01T10:47:27;6.50;;;1.90;;
61054;SDS011;46939;48.940;8.258;2023-02-01T10:49:58;6.97;;;2.50;;
61054;SDS011;46939;48.940;8.258;2023-02-01T10:52:36;7.00;;;2.22;;
61054;SDS011;46939;48.940;8.258;2023-02-01T10:57:57;6.90;;;2.25;;
61054;SDS011;46939;48.940;8.258;2023-02-01T11:02:55;7.82;;;2.47;;
61054;SDS011;46939;48.940;8.258;2023-02-01T11:05:24;7.75;;;2.60;;
61054;SDS011;46939;48.940;8.258;2023-02-01T11:07:53;11.93;;;2.53;;
61054;SDS011;46939;48.940;8.258;2023-02-01T11:10:35;8.63;;;2.40;;
61054;SDS011;46939;48.940;8.258;2023-02-01T11:13:11;6.82;;;2.50;;
61054;SDS011;46939;48.940;8.258;2023-02-01T11:15:42;9.20;;;2.47;;
61054;SDS011;46939;48.940;8.258;2023-02-01T11:18:14;10.57;;;2.72;;
61054;SDS011;46939;48.940;8.258;2023-02-01T11:20:45;10.43;;;2.35;;
61054;SDS011;46939;48.940;8.258;2023-02-01T11:23:17;8.77;;;2.50;;
61054;SDS011;46939;48.940;8.258;2023-02-01T11:25:48;11.50;;;2.72;;
61054;SDS011;46939;48.940;8.258;2023-02-01T11:28:21;8.45;;;2.85;;
61054;SDS011;46939;48.940;8.258;2023-02-01T11:30:54;9.10;;;2.35;;
61054;SDS011;46939;48.940;8.258;2023-02-01T11:33:27;5.32;;;2.00;;
61054;SDS011;46939;48.940;8.258;2023-02-01T11:36:00;10.57;;;2.60;;
61054;SDS011;46939;48.940;8.258;2023-02-01T11:41:12;8.75;;;2.70;;
61054;SDS011;46939;48.940;8.258;2023-02-01T11:43:55;9.43;;;2.55;;
61054;SDS011;46939;48.940;8.258;2023-02-01T11:46:27;11.40;;;2.42;;
61054;SDS011;46939;48.940;8.258;2023-02-01T11:48:57;11.10;;;2.60;;
61054;SDS011;46939;48.940;8.258;2023-02-01T11:51:44;9.20;;;2.45;;
61054;SDS011;46939;48.940;8.258;2023-02-01T11:54:32;7.00;;;2.40;;
61054;SDS011;46939;48.940;8.258;2023-02-01T11:57:15;7.70;;;2.70;;
61054;SDS011;46939;48.940;8.258;2023-02-01T11:59:59;8.48;;;2.58;;
61054;SDS011;46939;48.940;8.258;2023-02-01T12:02:43;12.10;;;2.40;;
61054;SDS011;46939;48.940;8.258;2023-02-01T12:05:27;8.52;;;2.17;;
61054;SDS011;46939;48.940;8.258;2023-02-01T12:08:22;6.15;;;2.38;;
61054;SDS011;46939;48.940;8.258;2023-02-01T12:11:03;8.75;;;2.10;;
61054;SDS011;46939;48.940;8.258;2023-02-01T12:13:55;10.25;;;2.30;;
61054;SDS011;46939;48.940;8.258;2023-02-01T12:16:42;8.32;;;2.25;;
61054;SDS011;46939;48.940;8.258;2023-02-01T12:19:26;9.02;;;2.53;;
61054;SDS011;46939;48.940;8.258;2023-02-01T12:22:12;12.07;;;2.40;;
61054;SDS011;46939;48.940;8.258;2023-02-01T12:25:00;6.10;;;2.22;;
61054;SDS011;46939;48.940;8.258;2023-02-01T12:30:58;8.68;;;2.08;;
61054;SDS011;46939;48.940;8.258;2023-02-01T12:33:49;10.63;;;2.60;;
61054;SDS011;46939;48.940;8.258;2023-02-01T12:36:31;12.57;;;2.17;;
61054;SDS011;46939;48.940;8.258;2023-02-01T12:39:10;10.20;;;2.60;;
61054;SDS011;46939;48.940;8.258;2023-02-01T12:41:52;8.57;;;2.28;;
61054;SDS011;46939;48.940;8.258;2023-02-01T12:47:01;14.85;;;2.83;;
61054;SDS011;46939;48.940;8.258;2023-02-01T12:49:38;8.25;;;2.42;;
61054;SDS011;46939;48.940;8.258;2023-02-01T12:52:14;6.75;;;2.53;;
61054;SDS011;46939;48.940;8.258;2023-02-01T12:54:48;8.18;;;2.50;;
61054;SDS011;46939;48.940;8.258;2023-02-01T12:57:23;12.10;;;3.17;;
61054;SDS011;46939;48.940;8.258;2023-02-01T12:59:56;13.65;;;3.03;;
61054;SDS011;46939;48.940;8.258;2023-02-01T13:02:35;12.90;;;2.60;;
61054;SDS011;46939;48.940;8.258;2023-02-01T13:05:17;16.90;;;3.20;;
61054;SDS011;46939;48.940;8.258;2023-02-01T13:07:50;11.55;;;2.78;;
61054;SDS011;46939;48.940;8.258;2023-02-01T13:10:24;18.63;;;2.53;;
61054;SDS011;46939;48.940;8.258;2023-02-01T13:13:02;15.00;;;2.40;;
61054;SDS011;46939;48.940;8.258;2023-02-01T13:15:38;7.40;;;2.75;;
61054;SDS011;46939;48.940;8.258;2023-02-01T13:18:13;12.35;;;2.30;;
61054;SDS011;46939;48.940;8.258;2023-02-01T13:20:49;10.00;;;3.15;;
61054;SDS011;46939;48.940;8.258;2023-02-01T13:23:26;13.23;;;2.80;;
61054;SDS011;46939;48.940;8.258;2023-02-01T13:25:57;13.30;;;2.83;;
61054;SDS011;46939;48.940;8.258;2023-02-01T13:28:26;17.08;;;2.92;;
61054;SDS011;46939;48.940;8.258;2023-02-01T13:31:01;15.13;;;3.97;;
61054;SDS011;46939;48.940;8.258;2023-02-01T13:33:51;16.63;;;2.70;;
61054;SDS011;46939;48.940;8.258;2023-02-01T13:39:28;12.20;;;2.20;;
61054;SDS011;46939;48.940;8.258;2023-02-01T13:42:11;12.68;;;2.70;;
61054;SDS011;46939;48.940;8.258;2023-02-01T13:44:46;9.68;;;2.20;;
61054;SDS011;46939;48.940;8.258;2023-02-01T13:47:24;14.77;;;2.75;;
61054;SDS011;46939;48.940;8.258;2023-02-01T13:49:57;11.00;;;2.55;;
61054;SDS011;46939;48.940;8.258;2023-02-01T13:52:34;15.57;;;2.90;;
61054;SDS011;46939;48.940;8.258;2023-02-01T13:58:14;12.63;;;3.15;;
61054;SDS011;46939;48.940;8.258;2023-02-01T14:00:46;15.43;;;2.55;;
61054;SDS011;46939;48.940;8.258;2023-02-01T14:03:19;11.38;;;3.10;;
61054;SDS011;46939;48.940;8.258;2023-02-01T14:05:56;12.90;;;2.20;;
61054;SDS011;46939;48.940;8.258;2023-02-01T14:08:41;9.98;;;2.58;;
61054;SDS011;46939;48.940;8.258;2023-02-01T14:14:07;11.30;;;2.50;;
61054;SDS011;46939;48.940;8.258;2023-02-01T14:23:24;15.15;;;2.92;;
61054;SDS011;46939;48.940;8.258;2023-02-01T14:26:04;12.52;;;3.17;;
61054;SDS011;46939;48.940;8.258;2023-02-01T14:31:53;22.90;;;2.83;;
61054;SDS011;46939;48.940;8.258;2023-02-01T14:34:31;7.88;;;2.13;;
61054;SDS011;46939;48.940;8.258;2023-02-01T14:37:09;13.57;;;2.47;;
61054;SDS011;46939;48.940;8.258;2023-02-01T14:39:49;12.13;;;2.35;;
61054;SDS011;46939;48.940;8.258;2023-02-01T14:42:27;11.48;;;2.55;;
61054;SDS011;46939;48.940;8.258;2023-02-01T14:48:38;12.05;;;2.75;;
61054;SDS011;46939;48.940;8.258;2023-02-01T14:51:00;11.00;;;2.75;;
61054;SDS011;46939;48.940;8.258;2023-02-01T14:53:31;13.05;;;2.50;;
61054;SDS011;46939;48.940;8.258;2023-02-01T14:56:05;10.85;;;2.38;;
61054;SDS011;46939;48.940;8.258;2023-02-01T14:58:42;12.68;;;2.22;;
61054;SDS011;46939;48.940;8.258;2023-02-01T15:01:16;17.98;;;3.08;;
61054;SDS011;46939;48.940;8.258;2023-02-01T15:03:50;12.75;;;3.00;;
61054;SDS011;46939;48.940;8.258;2023-02-01T15:06:33;8.73;;;2.15;;
61054;SDS011;46939;48.940;8.258;2023-02-01T15:09:08;14.50;;;2.60;;
61054;SDS011;46939;48.940;8.258;2023-02-01T15:11:55;13.35;;;2.15;;
61054;SDS011;46939;48.940;8.258;2023-02-01T15:14:32;11.60;;;2.20;;
61054;SDS011;46939;48.940;8.258;2023-02-01T15:17:02;12.38;;;2.95;;
61054;SDS011;46939;48.940;8.258;2023-02-01T15:19:52;12.57;;;2.47;;
61054;SDS011;46939;48.940;8.258;2023-02-01T15:22:21;11.45;;;2.58;;
61054;SDS011;46939;48.940;8.258;2023-02-01T15:24:51;12.85;;;2.63;;
61054;SDS011;46939;48.940;8.258;2023-02-01T15:27:20;13.88;;;2.50;;
61054;SDS011;46939;48.940;8.258;2023-02-01T15:29:52;15.82;;;2.10;;
61054;SDS011;46939;48.940;8.258;2023-02-01T15:32:28;9.63;;;2.10;;
61054;SDS011;46939;48.940;8.258;2023-02-01T15:34:58;14.55;;;2.28;;
61054;SDS011;46939;48.940;8.258;2023-02-01T15:37:28;12.30;;;2.67;;
61054;SDS011;46939;48.940;8.258;2023-02-01T15:40:03;15.32;;;2.60;;
61054;SDS011;46939;48.940;8.258;2023-02-01T15:42:49;10.38;;;2.35;;
61054;SDS011;46939;48.940;8.258;2023-02-01T15:45:24;7.73;;;2.00;;
61054;SDS011;46939;48.940;8.258;2023-02-01T15:47:59;18.00;;;2.72;;
61054;SDS011;46939;48.940;8.258;2023-02-01T15:50:29;14.07;;;2.25;;
61054;SDS011;46939;48.940;8.258;2023-02-01T15:52:58;11.38;;;2.42;;
61054;SDS011;46939;48.940;8.258;2023-02-01T15:55:30;9.20;;;2.28;;
61054;SDS011;46939;48.940;8.258;2023-02-01T15:58:05;10.93;;;2.58;;
61054;SDS011;46939;48.940;8.258;2023-02-01T16:00:43;14.50;;;2.45;;
61054;SDS011;46939;48.940;8.258;2023-02-01T16:03:27;14.10;;;2.35;;
61054;SDS011;46939;48.940;8.258;2023-02-01T16:06:02;12.93;;;2.47;;
61054;SDS011;46939;48.940;8.258;2023-02-01T16:08:33;16.67;;;2.72;;
61054;SDS011;46939;48.940;8.258;2023-02-01T16:11:14;8.25;;;2.38;;
61054;SDS011;46939;48.940;8.258;2023-02-01T16:13:49;9.65;;;2.25;;
61054;SDS011;46939;48.940;8.258;2023-02-01T16:16:20;12.75;;;2.13;;
61054;SDS011;46939;48.940;8.258;2023-02-01T16:18:50;12.68;;;2.47;;